createdAt,value
2022-12-31T00:01:27.558Z,11.40
2022-12-31T00:04:30.556Z,11.40
2022-12-31T00:10:41.527Z,11.50
2022-12-31T00:13:46.899Z,11.60
2022-12-31T00:16:49.932Z,11.70
2022-12-31T00:19:52.945Z,11.70
2022-12-31T00:22:55.954Z,11.80
2022-12-31T00:26:03.759Z,11.80
2022-12-31T00:29:08.315Z,11.80
2022-12-31T00:32:11.352Z,11.80
2022-12-31T00:35:14.402Z,11.80
2022-12-31T00:38:17.409Z,11.80
2022-12-31T00:41:22.160Z,11.80
2022-12-31T00:44:26.508Z,11.90
2022-12-31T00:47:29.890Z,11.90
2022-12-31T00:50:32.880Z,11.80
2022-12-31T00:53:36.067Z,11.90
2022-12-31T00:56:39.059Z,11.90
2022-12-31T00:59:43.390Z,11.90
2022-12-31T01:02:46.444Z,12.00
2022-12-31T01:05:50.338Z,12.00
2022-12-31T01:08:55.181Z,12.00
2022-12-31T01:11:58.208Z,12.10
2022-12-31T01:15:02.547Z,12.10
2022-12-31T01:18:06.967Z,12.10
2022-12-31T01:21:15.555Z,12.20
2022-12-31T01:24:19.064Z,12.20
2022-12-31T01:27:22.076Z,12.20
2022-12-31T01:30:26.428Z,12.30
2022-12-31T01:33:29.416Z,12.30
2022-12-31T01:36:34.691Z,12.40
2022-12-31T01:39:37.707Z,12.40
2022-12-31T01:42:40.663Z,12.40
2022-12-31T01:45:46.624Z,12.40
2022-12-31T01:48:52.486Z,12.40
2022-12-31T01:51:58.840Z,12.40
2022-12-31T01:55:06.823Z,12.30
2022-12-31T01:58:13.524Z,12.30
2022-12-31T02:01:22.671Z,12.30
2022-12-31T02:04:27.490Z,12.30
2022-12-31T02:07:30.470Z,12.30
2022-12-31T02:10:33.779Z,12.40
2022-12-31T02:13:36.776Z,12.40
2022-12-31T02:16:48.832Z,12.50
2022-12-31T02:20:33.629Z,12.50
2022-12-31T02:24:13.925Z,12.50
2022-12-31T02:27:26.045Z,12.50
2022-12-31T02:30:33.191Z,12.60
2022-12-31T02:33:40.313Z,12.60
2022-12-31T02:36:46.169Z,12.60
2022-12-31T02:39:50.001Z,12.60
2022-12-31T02:42:55.561Z,12.60
2022-12-31T02:46:09.655Z,12.60
2022-12-31T02:49:22.110Z,12.60
2022-12-31T02:52:33.225Z,12.60
2022-12-31T02:55:42.061Z,12.60
2022-12-31T02:59:15.981Z,12.50
2022-12-31T03:02:24.066Z,12.40
2022-12-31T03:05:30.375Z,12.30
2022-12-31T03:08:53.339Z,12.30
2022-12-31T03:12:14.389Z,12.20
2022-12-31T03:15:22.705Z,12.10
2022-12-31T03:18:55.830Z,12.00
2022-12-31T03:22:16.610Z,12.00
2022-12-31T03:25:34.983Z,11.90
2022-12-31T03:28:39.244Z,11.90
2022-12-31T03:31:42.266Z,11.90
2022-12-31T03:34:46.599Z,11.80
2022-12-31T03:37:50.768Z,11.80
2022-12-31T03:40:54.289Z,11.80
2022-12-31T03:43:57.249Z,11.80
2022-12-31T03:47:00.250Z,11.80
2022-12-31T03:50:05.163Z,11.70
2022-12-31T03:53:08.350Z,11.80
2022-12-31T03:56:11.345Z,11.80
2022-12-31T03:59:14.500Z,11.70
2022-12-31T04:02:18.556Z,11.80
2022-12-31T04:05:25.353Z,11.70
2022-12-31T04:08:28.350Z,11.70
2022-12-31T04:11:31.315Z,11.80
2022-12-31T04:14:34.305Z,11.80
2022-12-31T04:17:37.357Z,11.80
2022-12-31T04:20:41.657Z,11.80
2022-12-31T04:23:44.668Z,11.80
2022-12-31T04:26:47.778Z,11.80
2022-12-31T04:29:50.782Z,11.90
2022-12-31T04:32:53.815Z,11.80
2022-12-31T04:36:02.734Z,11.90
2022-12-31T04:39:05.720Z,11.90
2022-12-31T04:42:08.734Z,11.80
2022-12-31T04:45:12.167Z,11.90
2022-12-31T04:48:15.160Z,11.90
2022-12-31T04:51:20.016Z,11.90
2022-12-31T04:54:23.069Z,11.90
2022-12-31T04:57:26.145Z,11.90
2022-12-31T05:00:29.138Z,11.80
2022-12-31T05:03:32.866Z,11.80
2022-12-31T05:06:37.154Z,11.80
2022-12-31T05:09:40.144Z,11.80
2022-12-31T05:12:43.208Z,11.80
2022-12-31T05:15:47.528Z,11.80
2022-12-31T05:18:50.552Z,11.80
2022-12-31T05:22:08.845Z,11.70
2022-12-31T05:25:11.850Z,11.70
2022-12-31T05:28:15.946Z,11.70
2022-12-31T05:31:18.984Z,11.70
2022-12-31T05:34:21.984Z,11.70
2022-12-31T05:37:26.720Z,11.60
2022-12-31T05:40:30.056Z,11.60
2022-12-31T05:43:33.531Z,11.60
2022-12-31T05:46:36.498Z,11.60
2022-12-31T05:49:39.604Z,11.60
2022-12-31T05:52:47.652Z,11.60
2022-12-31T05:55:50.903Z,11.60
2022-12-31T05:58:53.942Z,11.70
2022-12-31T06:01:57.298Z,11.60
2022-12-31T06:05:01.119Z,11.60
2022-12-31T06:08:05.914Z,11.60
2022-12-31T06:11:09.004Z,11.60
2022-12-31T06:14:12.125Z,11.50
2022-12-31T06:17:15.107Z,11.60
2022-12-31T06:20:18.658Z,11.50
2022-12-31T06:23:22.981Z,11.50
2022-12-31T06:26:26.217Z,11.50
2022-12-31T06:29:29.705Z,11.40
2022-12-31T06:32:32.697Z,11.40
2022-12-31T06:35:35.707Z,11.40
2022-12-31T06:38:41.793Z,11.50
2022-12-31T06:41:44.743Z,11.40
2022-12-31T06:44:47.752Z,11.40
2022-12-31T06:47:50.849Z,11.40
2022-12-31T06:50:53.895Z,11.30
2022-12-31T06:53:58.231Z,11.30
2022-12-31T06:57:01.633Z,11.30
2022-12-31T07:00:05.893Z,11.30
2022-12-31T07:03:25.578Z,11.30
2022-12-31T07:06:34.808Z,11.20
2022-12-31T07:09:47.534Z,11.20
2022-12-31T07:13:06.407Z,11.20
2022-12-31T07:16:20.735Z,11.20
2022-12-31T07:19:35.126Z,11.20
2022-12-31T07:22:38.865Z,11.20
2022-12-31T07:25:52.369Z,11.10
2022-12-31T07:29:05.470Z,11.10
2022-12-31T07:32:16.181Z,11.20
2022-12-31T07:35:32.952Z,11.10
2022-12-31T07:38:48.698Z,11.10
2022-12-31T07:42:00.141Z,11.10
2022-12-31T07:45:15.164Z,11.10
2022-12-31T07:48:24.921Z,11.10
2022-12-31T07:51:28.956Z,11.10
2022-12-31T07:54:31.933Z,11.10
2022-12-31T07:57:43.677Z,11.10
2022-12-31T08:00:47.595Z,11.10
2022-12-31T08:04:00.797Z,11.10
2022-12-31T08:07:10.881Z,11.10
2022-12-31T08:10:20.425Z,11.10
2022-12-31T08:13:25.081Z,11.10
2022-12-31T08:16:28.823Z,11.10
2022-12-31T08:19:33.570Z,11.10
2022-12-31T08:22:52.459Z,11.10
2022-12-31T08:26:10.611Z,11.10
2022-12-31T08:29:30.825Z,11.20
2022-12-31T08:32:39.777Z,11.20
2022-12-31T08:35:58.199Z,11.30
2022-12-31T08:39:08.601Z,11.30
2022-12-31T08:42:23.183Z,11.40
2022-12-31T08:45:37.697Z,11.40
2022-12-31T08:48:42.522Z,11.50
2022-12-31T08:51:46.011Z,11.50
2022-12-31T08:54:49.458Z,11.50
2022-12-31T08:58:05.685Z,11.50
2022-12-31T09:01:12.440Z,11.50
2022-12-31T09:04:23.564Z,11.50
2022-12-31T09:07:36.415Z,11.50
2022-12-31T09:10:45.646Z,11.50
2022-12-31T09:14:06.044Z,11.50
2022-12-31T09:17:23.713Z,11.60
2022-12-31T09:20:41.832Z,11.60
2022-12-31T09:23:46.020Z,11.60
2022-12-31T09:26:58.239Z,11.70
2022-12-31T09:30:05.452Z,11.80
2022-12-31T09:33:13.853Z,11.90
2022-12-31T09:36:22.108Z,11.80
2022-12-31T09:39:34.405Z,11.80
2022-12-31T09:43:01.651Z,11.80
2022-12-31T09:46:24.238Z,11.80
2022-12-31T09:50:01.534Z,11.80
2022-12-31T09:53:23.095Z,11.90
2022-12-31T09:56:30.188Z,11.80
2022-12-31T09:59:41.978Z,11.80
2022-12-31T10:03:01.631Z,11.80
2022-12-31T10:06:18.835Z,11.80
2022-12-31T10:09:43.966Z,11.80
2022-12-31T10:13:09.814Z,11.80
2022-12-31T10:16:34.986Z,11.80
2022-12-31T10:20:01.771Z,11.80
2022-12-31T10:23:37.263Z,11.90
2022-12-31T10:27:04.006Z,11.90
2022-12-31T10:30:16.242Z,11.90
2022-12-31T10:33:38.699Z,11.90
2022-12-31T10:36:54.568Z,11.90
2022-12-31T10:40:12.081Z,12.00
2022-12-31T10:43:48.413Z,12.00
2022-12-31T10:47:22.736Z,12.10
2022-12-31T10:50:49.917Z,12.10
2022-12-31T10:54:33.997Z,12.20
2022-12-31T10:58:09.523Z,12.20
2022-12-31T11:01:18.445Z,12.20
2022-12-31T11:04:59.486Z,12.30
2022-12-31T11:08:16.335Z,12.30
2022-12-31T11:11:29.901Z,12.30
2022-12-31T11:14:49.851Z,12.30
2022-12-31T11:18:05.794Z,12.40
2022-12-31T11:21:34.198Z,12.40
2022-12-31T11:24:57.615Z,12.50
2022-12-31T11:28:23.599Z,12.50
2022-12-31T11:32:05.203Z,12.60
2022-12-31T11:35:23.011Z,12.60
2022-12-31T11:38:30.072Z,12.70
2022-12-31T11:41:40.499Z,12.80
2022-12-31T11:44:50.364Z,12.90
2022-12-31T11:48:30.094Z,12.90
2022-12-31T11:51:50.443Z,13.00
2022-12-31T11:55:12.579Z,13.00
2022-12-31T11:58:17.496Z,13.10
2022-12-31T12:01:25.714Z,13.20
2022-12-31T12:04:31.055Z,13.20
2022-12-31T12:07:34.367Z,13.20
2022-12-31T12:10:43.046Z,13.20
2022-12-31T12:13:46.175Z,13.30
2022-12-31T12:16:59.205Z,13.40
2022-12-31T12:20:16.940Z,13.60
2022-12-31T12:23:25.093Z,13.60
2022-12-31T12:26:34.010Z,13.60
2022-12-31T12:29:37.213Z,13.60
2022-12-31T12:32:40.225Z,13.70
2022-12-31T12:35:44.689Z,13.80
2022-12-31T12:38:47.963Z,13.90
2022-12-31T12:42:02.100Z,13.90
2022-12-31T12:45:08.851Z,13.80
2022-12-31T12:48:19.822Z,13.80
2022-12-31T12:51:47.525Z,13.80
2022-12-31T12:55:04.927Z,13.80
2022-12-31T12:58:20.267Z,13.90
2022-12-31T13:01:30.977Z,13.90
2022-12-31T13:04:57.070Z,13.90
2022-12-31T13:08:14.590Z,13.90
2022-12-31T13:11:31.837Z,13.90
2022-12-31T13:14:42.334Z,13.90
2022-12-31T13:18:01.460Z,13.90
2022-12-31T13:21:19.012Z,13.90
2022-12-31T13:24:35.672Z,13.90
2022-12-31T13:27:42.639Z,13.90
2022-12-31T13:30:49.474Z,13.90
2022-12-31T13:33:57.308Z,13.90
2022-12-31T13:37:04.245Z,13.90
2022-12-31T13:40:19.673Z,13.90
2022-12-31T13:43:31.043Z,13.90
2022-12-31T13:46:42.285Z,13.90
2022-12-31T13:49:49.853Z,13.90
2022-12-31T13:52:57.591Z,14.00
2022-12-31T13:56:06.472Z,14.00
2022-12-31T13:59:18.381Z,14.00
2022-12-31T14:02:33.131Z,14.00
2022-12-31T14:05:40.166Z,14.00
2022-12-31T14:08:43.152Z,14.00
2022-12-31T14:12:06.707Z,14.10
2022-12-31T14:15:17.566Z,14.10
2022-12-31T14:18:24.461Z,14.10
2022-12-31T14:21:32.596Z,14.10
2022-12-31T14:24:45.088Z,14.10
2022-12-31T14:27:51.999Z,14.10
2022-12-31T14:31:01.418Z,14.10
2022-12-31T14:34:09.318Z,14.20
2022-12-31T14:37:17.903Z,14.20
2022-12-31T14:40:28.789Z,14.30
2022-12-31T14:43:40.429Z,14.20
2022-12-31T14:46:57.192Z,14.30
2022-12-31T14:50:07.105Z,14.30
2022-12-31T14:53:19.983Z,14.30
2022-12-31T14:56:32.731Z,14.30
2022-12-31T14:59:40.424Z,14.30
2022-12-31T15:02:50.607Z,14.30
2022-12-31T15:05:55.856Z,14.30
2022-12-31T15:09:10.306Z,14.20
2022-12-31T15:12:31.657Z,14.20
2022-12-31T15:16:04.964Z,14.10
2022-12-31T15:19:44.684Z,14.00
2022-12-31T15:22:49.392Z,14.00
2022-12-31T15:25:59.204Z,14.00
2022-12-31T15:29:05.094Z,13.90
2022-12-31T15:32:18.483Z,13.90
2022-12-31T15:35:27.652Z,13.90
2022-12-31T15:38:34.750Z,13.90
2022-12-31T15:41:46.040Z,13.80
2022-12-31T15:45:01.426Z,13.80
2022-12-31T15:48:11.221Z,13.80
2022-12-31T15:51:18.750Z,13.70
2022-12-31T15:54:25.790Z,13.70
2022-12-31T15:57:33.900Z,13.70
2022-12-31T16:01:02.104Z,13.60
2022-12-31T16:04:15.146Z,13.60
2022-12-31T16:07:19.094Z,13.60
2022-12-31T16:10:26.044Z,13.50
2022-12-31T16:13:30.381Z,13.50
2022-12-31T16:16:35.975Z,13.50
2022-12-31T16:19:46.122Z,13.50
2022-12-31T16:22:52.917Z,13.50
2022-12-31T16:26:00.333Z,13.50
2022-12-31T16:29:05.150Z,13.50
2022-12-31T16:32:13.127Z,13.50
2022-12-31T16:35:26.575Z,13.40
2022-12-31T16:38:34.844Z,13.40
2022-12-31T16:41:43.498Z,13.40
2022-12-31T16:44:46.803Z,13.40
2022-12-31T16:47:50.008Z,13.30
2022-12-31T16:50:56.666Z,13.30
2022-12-31T16:54:02.155Z,13.30
2022-12-31T16:57:06.484Z,13.30
2022-12-31T17:00:17.320Z,13.30
2022-12-31T17:03:23.209Z,13.30
2022-12-31T17:06:28.391Z,13.20
2022-12-31T17:09:37.766Z,13.20
2022-12-31T17:13:17.492Z,13.30
2022-12-31T17:16:07.687Z,13.20
2022-12-31T17:19:27.286Z,13.20
2022-12-31T17:22:36.988Z,13.10
2022-12-31T17:25:40.432Z,13.10
2022-12-31T17:28:47.046Z,13.10
2022-12-31T17:32:00.454Z,13.10
2022-12-31T17:35:03.523Z,13.20
2022-12-31T17:38:33.356Z,13.20
2022-12-31T17:41:36.321Z,13.20
2022-12-31T17:44:41.804Z,13.20
2022-12-31T17:47:50.888Z,13.20
2022-12-31T17:50:55.552Z,13.30
2022-12-31T17:54:01.181Z,13.30
2022-12-31T17:57:04.388Z,13.40
2022-12-31T18:00:09.173Z,13.40
2022-12-31T18:03:12.275Z,13.40
2022-12-31T18:06:17.275Z,13.40
2022-12-31T18:09:21.670Z,13.30
2022-12-31T18:12:24.700Z,13.30
2022-12-31T18:15:27.703Z,13.30
2022-12-31T18:18:35.797Z,13.30
2022-12-31T18:21:38.814Z,13.30
2022-12-31T18:24:43.198Z,13.40
2022-12-31T18:27:46.326Z,13.50
2022-12-31T18:30:49.859Z,13.50
2022-12-31T18:33:54.276Z,13.60
2022-12-31T18:36:57.827Z,13.60
2022-12-31T18:40:02.140Z,13.60
2022-12-31T18:43:05.438Z,13.70
2022-12-31T18:46:12.007Z,13.70
2022-12-31T18:49:15.079Z,13.70
2022-12-31T18:52:19.854Z,13.70
2022-12-31T18:55:28.177Z,13.70
2022-12-31T18:58:31.219Z,13.70
2022-12-31T19:01:36.257Z,13.80
2022-12-31T19:04:39.340Z,13.80
2022-12-31T19:07:42.339Z,13.80
2022-12-31T19:10:47.443Z,13.80
2022-12-31T19:13:50.808Z,13.80
2022-12-31T19:16:55.759Z,13.80
2022-12-31T19:20:04.221Z,13.80
2022-12-31T19:23:07.605Z,13.80
2022-12-31T19:26:15.386Z,13.80
2022-12-31T19:29:20.439Z,13.80
2022-12-31T19:32:23.425Z,13.90
2022-12-31T19:35:27.504Z,13.90
2022-12-31T19:38:32.087Z,13.90
2022-12-31T19:41:36.440Z,13.80
2022-12-31T19:44:39.437Z,13.80
2022-12-31T19:47:42.458Z,13.90
2022-12-31T19:50:47.524Z,13.90
2022-12-31T19:53:50.953Z,13.80
2022-12-31T19:56:55.703Z,13.80
2022-12-31T19:59:58.727Z,13.80
2022-12-31T20:03:01.838Z,13.80
2022-12-31T20:06:07.585Z,13.70
2022-12-31T20:09:11.828Z,13.80
2022-12-31T20:12:16.184Z,13.80
2022-12-31T20:15:19.498Z,13.80
2022-12-31T20:18:23.224Z,13.90
2022-12-31T20:21:29.249Z,13.90
2022-12-31T20:24:32.311Z,13.90
2022-12-31T20:27:36.818Z,13.90
2022-12-31T20:30:39.990Z,14.00
2022-12-31T20:33:43.281Z,14.00
2022-12-31T20:36:46.385Z,14.00
2022-12-31T20:39:49.387Z,14.10
2022-12-31T20:42:53.692Z,14.10
2022-12-31T20:45:56.705Z,14.10
2022-12-31T20:49:01.725Z,14.20
2022-12-31T20:52:05.434Z,14.40
2022-12-31T20:55:09.656Z,14.50
2022-12-31T20:58:13.969Z,14.60
2022-12-31T21:01:18.066Z,14.70
2022-12-31T21:04:21.299Z,14.70
2022-12-31T21:07:24.477Z,14.70
2022-12-31T21:10:27.522Z,14.80
2022-12-31T21:13:31.841Z,14.80
2022-12-31T21:16:35.262Z,14.80
2022-12-31T21:19:38.281Z,14.80
2022-12-31T21:22:41.292Z,14.90
2022-12-31T21:25:45.296Z,14.90
2022-12-31T21:28:49.629Z,15.00
2022-12-31T21:31:52.655Z,15.00
2022-12-31T21:35:31.554Z,15.10
2022-12-31T21:38:18.661Z,15.10
2022-12-31T21:41:39.311Z,15.20
2022-12-31T21:44:43.648Z,15.20
2022-12-31T21:48:04.014Z,15.20
2022-12-31T21:51:09.399Z,15.20
2022-12-31T21:54:32.389Z,15.30
2022-12-31T21:57:59.027Z,15.30
2022-12-31T22:01:18.417Z,15.30
2022-12-31T22:04:59.768Z,15.30
2022-12-31T22:07:44.639Z,15.30
2022-12-31T22:10:52.432Z,15.40
2022-12-31T22:13:56.603Z,15.40
2022-12-31T22:17:00.930Z,15.40
2022-12-31T22:23:27.311Z,15.50
2022-12-31T22:26:30.390Z,15.50
2022-12-31T22:29:33.637Z,15.40
2022-12-31T22:32:37.978Z,15.50
2022-12-31T22:35:41.015Z,15.50
2022-12-31T22:38:44.695Z,15.60
2022-12-31T22:41:47.708Z,15.50
2022-12-31T22:44:50.692Z,15.50
2022-12-31T22:47:55.666Z,15.40
2022-12-31T22:50:58.774Z,15.40
2022-12-31T22:54:01.775Z,15.40
2022-12-31T22:57:04.938Z,15.40
2022-12-31T23:00:14.198Z,15.40
2022-12-31T23:03:18.797Z,15.50
2022-12-31T23:06:22.929Z,15.50
2022-12-31T23:09:43.682Z,15.50
2022-12-31T23:12:46.694Z,15.50
2022-12-31T23:16:07.522Z,15.60
2022-12-31T23:19:30.005Z,15.60
2022-12-31T23:22:50.339Z,15.60
2022-12-31T23:25:53.785Z,15.70
2022-12-31T23:28:56.773Z,15.70
2022-12-31T23:31:59.815Z,15.70
2022-12-31T23:35:09.610Z,15.70
2022-12-31T23:38:13.653Z,15.70
2022-12-31T23:41:19.615Z,15.80
2022-12-31T23:44:22.585Z,15.80
2022-12-31T23:47:25.582Z,15.80
2022-12-31T23:50:29.991Z,15.80
2022-12-31T23:53:33.154Z,15.80
2022-12-31T23:56:36.246Z,15.80
2022-12-31T23:59:39.301Z,15.80
